createdAt,value
2018-12-22T00:00:14.164Z,7.10
2018-12-22T00:04:49.054Z,7.20
2018-12-22T00:09:23.911Z,7.20
2018-12-22T00:13:58.803Z,7.10
2018-12-22T00:18:33.671Z,7.20
2018-12-22T00:23:08.598Z,7.20
2018-12-22T00:27:43.499Z,7.20
2018-12-22T00:32:18.418Z,7.10
2018-12-22T00:36:54.315Z,7.10
2018-12-22T00:41:29.228Z,7.10
2018-12-22T00:46:04.110Z,7.00
2018-12-22T00:50:38.995Z,7.10
2018-12-22T00:55:13.863Z,7.00
2018-12-22T00:59:48.757Z,7.10
2018-12-22T01:04:23.645Z,7.20
2018-12-22T01:08:58.527Z,7.20
2018-12-22T01:13:33.394Z,7.20
2018-12-22T01:18:08.276Z,7.30
2018-12-22T01:22:43.191Z,7.20
2018-12-22T01:27:18.142Z,7.10
2018-12-22T01:31:53.020Z,7.20
2018-12-22T01:36:27.951Z,7.10
2018-12-22T01:41:03.566Z,7.10
2018-12-22T01:45:38.566Z,7.10
2018-12-22T01:50:13.823Z,7.20
2018-12-22T01:54:48.781Z,7.30
2018-12-22T01:59:23.696Z,7.30
2018-12-22T02:03:58.628Z,7.40
2018-12-22T02:08:33.635Z,7.50
2018-12-22T02:13:08.579Z,7.50
2018-12-22T02:17:43.440Z,7.40
2018-12-22T02:22:18.428Z,7.30
2018-12-22T02:26:53.305Z,7.30
2018-12-22T02:31:28.224Z,7.20
2018-12-22T02:36:03.133Z,7.30
2018-12-22T02:40:38.061Z,7.20
2018-12-22T02:45:13.672Z,7.10
2018-12-22T02:49:48.578Z,7.20
2018-12-22T02:54:23.568Z,7.10
2018-12-22T02:59:05.883Z,7.10
2018-12-22T03:03:35.331Z,7.10
2018-12-22T03:08:10.203Z,7.00
2018-12-22T03:12:45.076Z,7.00
2018-12-22T03:17:20.100Z,6.90
2018-12-22T03:21:54.964Z,7.00
2018-12-22T03:26:29.934Z,6.90
2018-12-22T03:31:04.807Z,6.90
2018-12-22T03:35:39.720Z,7.00
2018-12-22T03:40:14.611Z,6.90
2018-12-22T03:44:49.503Z,7.00
2018-12-22T03:49:24.378Z,7.00
2018-12-22T03:53:59.258Z,7.00
2018-12-22T03:58:34.135Z,6.90
2018-12-22T04:03:09.030Z,6.90
2018-12-22T04:07:43.895Z,7.00
2018-12-22T04:12:18.817Z,7.10
2018-12-22T04:16:53.744Z,7.40
2018-12-22T04:21:28.636Z,7.60
2018-12-22T04:26:03.522Z,7.60
2018-12-22T04:30:38.428Z,7.60
2018-12-22T04:35:13.309Z,7.50
2018-12-22T04:39:48.212Z,7.30
2018-12-22T04:44:23.079Z,7.30
2018-12-22T04:48:57.977Z,7.20
2018-12-22T04:53:32.856Z,7.30
2018-12-22T04:58:07.756Z,7.20
2018-12-22T05:02:42.639Z,7.20
2018-12-22T05:07:17.539Z,7.10
2018-12-22T05:11:52.431Z,7.10
2018-12-22T05:16:27.332Z,7.20
2018-12-22T05:21:02.195Z,7.40
2018-12-22T05:25:37.116Z,7.40
2018-12-22T05:30:12.002Z,7.20
2018-12-22T05:34:46.904Z,7.20
2018-12-22T05:39:21.787Z,7.20
2018-12-22T05:43:56.720Z,7.10
2018-12-22T05:48:31.598Z,7.20
2018-12-22T05:53:06.493Z,7.20
2018-12-22T05:57:41.476Z,7.20
2018-12-22T06:02:16.410Z,7.20
2018-12-22T06:06:51.299Z,7.20
2018-12-22T06:11:26.268Z,7.10
2018-12-22T06:16:01.147Z,7.10
2018-12-22T06:20:36.059Z,7.10
2018-12-22T06:25:11.006Z,7.00
2018-12-22T06:29:45.955Z,7.00
2018-12-22T06:34:20.810Z,7.10
2018-12-22T06:38:55.707Z,7.20
2018-12-22T06:43:30.583Z,7.20
2018-12-22T06:48:05.521Z,7.30
2018-12-22T06:52:40.400Z,7.40
2018-12-22T06:57:15.287Z,7.50
2018-12-22T07:01:50.156Z,7.50
2018-12-22T07:06:25.043Z,7.50
2018-12-22T07:10:59.901Z,7.60
2018-12-22T07:15:35.737Z,7.60
2018-12-22T07:20:10.652Z,7.50
2018-12-22T07:24:45.530Z,7.50
2018-12-22T07:29:20.404Z,7.50
2018-12-22T07:33:55.294Z,8.00
2018-12-22T07:38:30.174Z,8.10
2018-12-22T07:43:05.060Z,7.90
2018-12-22T07:47:39.927Z,7.80
2018-12-22T07:52:14.846Z,7.90
2018-12-22T07:56:49.707Z,8.00
2018-12-22T08:01:24.781Z,8.00
2018-12-22T08:05:59.628Z,7.90
2018-12-22T08:10:34.514Z,8.00
2018-12-22T08:15:09.520Z,8.30
2018-12-22T08:19:44.522Z,8.40
2018-12-22T08:24:19.392Z,8.70
2018-12-22T08:28:54.275Z,8.60
2018-12-22T08:33:30.073Z,8.60
2018-12-22T08:38:04.955Z,8.60
2018-12-22T08:42:39.838Z,8.50
2018-12-22T08:47:14.724Z,8.70
2018-12-22T08:51:49.591Z,8.80
2018-12-22T08:56:24.539Z,9.20
2018-12-22T09:00:59.421Z,9.60
2018-12-22T09:05:34.466Z,9.40
2018-12-22T09:10:10.290Z,9.30
2018-12-22T09:14:45.691Z,9.40
2018-12-22T09:19:20.555Z,9.50
2018-12-22T09:23:55.437Z,9.80
2018-12-22T09:28:30.296Z,9.90
2018-12-22T09:33:05.211Z,10.00
2018-12-22T09:37:40.075Z,10.20
2018-12-22T09:42:14.981Z,10.30
2018-12-22T09:46:49.859Z,10.90
2018-12-22T09:51:24.768Z,11.10
2018-12-22T09:55:59.659Z,11.20
2018-12-22T10:00:34.567Z,11.00
2018-12-22T10:05:10.031Z,11.00
2018-12-22T10:09:44.931Z,11.10
2018-12-22T10:14:19.795Z,11.70
2018-12-22T10:18:54.728Z,12.20
2018-12-22T10:23:29.639Z,12.00
2018-12-22T10:28:04.539Z,12.10
2018-12-22T10:32:40.048Z,12.10
2018-12-22T10:37:14.952Z,12.30
2018-12-22T10:41:49.822Z,12.30
2018-12-22T10:46:24.731Z,12.40
2018-12-22T10:50:59.600Z,12.70
2018-12-22T10:55:34.506Z,13.10
2018-12-22T11:00:12.927Z,13.20
2018-12-22T11:04:48.014Z,13.30
2018-12-22T11:09:22.915Z,13.30
2018-12-22T11:13:57.819Z,13.70
2018-12-22T11:18:32.712Z,13.90
2018-12-22T11:23:07.622Z,14.10
2018-12-22T11:27:42.950Z,14.10
2018-12-22T11:32:17.843Z,14.00
2018-12-22T11:36:52.745Z,14.00
2018-12-22T11:41:27.639Z,14.00
2018-12-22T11:46:02.533Z,14.00
2018-12-22T11:50:37.454Z,14.00
2018-12-22T11:55:12.461Z,14.10
2018-12-22T11:59:47.368Z,14.00
2018-12-22T12:04:22.264Z,14.00
2018-12-22T12:08:57.270Z,13.90
2018-12-22T12:13:32.436Z,13.70
2018-12-22T12:18:29.482Z,13.60
2018-12-22T12:23:04.400Z,13.40
2018-12-22T12:27:39.316Z,13.00
2018-12-22T12:32:14.215Z,12.80
2018-12-22T12:36:49.116Z,12.90
2018-12-22T12:41:23.994Z,12.90
2018-12-22T12:45:58.915Z,12.90
2018-12-22T12:50:33.794Z,12.90
2018-12-22T12:55:10.874Z,12.90
2018-12-22T12:59:45.864Z,12.90
2018-12-22T13:04:20.750Z,12.90
2018-12-22T13:08:55.637Z,12.80
2018-12-22T13:13:37.091Z,12.70
2018-12-22T13:18:11.965Z,12.60
2018-12-22T13:22:46.859Z,12.50
2018-12-22T13:27:21.740Z,12.50
2018-12-22T13:31:56.763Z,12.50
2018-12-22T13:36:34.869Z,12.20
2018-12-22T13:41:08.539Z,12.10
2018-12-22T13:45:43.458Z,12.00
2018-12-22T13:50:18.615Z,11.90
2018-12-22T13:54:53.812Z,12.10
2018-12-22T13:59:28.701Z,12.20
2018-12-22T14:04:03.579Z,12.30
2018-12-22T14:08:38.463Z,12.40
2018-12-22T14:13:13.328Z,12.40
2018-12-22T14:18:03.315Z,12.30
2018-12-22T14:22:38.200Z,12.20
2018-12-22T14:27:13.220Z,12.00
2018-12-22T14:31:48.116Z,11.80
2018-12-22T14:36:23.033Z,11.80
2018-12-22T14:40:57.916Z,11.70
2018-12-22T14:45:32.861Z,11.60
2018-12-22T14:50:10.071Z,11.70
2018-12-22T14:54:44.987Z,11.70
2018-12-22T14:59:23.059Z,11.60
2018-12-22T15:03:58.028Z,11.50
2018-12-22T15:08:32.896Z,11.50
2018-12-22T15:13:07.859Z,11.40
2018-12-22T15:17:42.785Z,11.50
2018-12-22T15:22:17.835Z,11.50
2018-12-22T15:26:52.726Z,11.50
2018-12-22T15:31:27.895Z,11.60
2018-12-22T15:36:02.775Z,11.60
2018-12-22T15:40:37.671Z,11.50
2018-12-22T15:45:14.192Z,11.40
2018-12-22T15:49:49.096Z,11.50
2018-12-22T15:54:23.963Z,11.40
2018-12-22T15:58:58.891Z,11.30
2018-12-22T16:03:33.812Z,11.20
2018-12-22T16:08:08.704Z,11.00
2018-12-22T16:12:43.608Z,10.80
2018-12-22T16:17:18.519Z,10.60
2018-12-22T16:21:53.432Z,10.60
2018-12-22T16:26:28.359Z,10.70
2018-12-22T16:31:03.251Z,10.70
2018-12-22T16:35:38.254Z,10.60
2018-12-22T16:40:13.820Z,10.30
2018-12-22T16:44:48.718Z,10.20
2018-12-22T16:49:23.595Z,10.20
2018-12-22T16:53:58.483Z,10.30
2018-12-22T16:58:35.625Z,10.30
2018-12-22T17:03:11.302Z,10.40
2018-12-22T17:07:46.316Z,10.40
2018-12-22T17:12:21.215Z,10.40
2018-12-22T17:16:57.148Z,10.30
2018-12-22T17:21:42.872Z,10.40
2018-12-22T17:26:18.132Z,10.40
2018-12-22T17:30:53.061Z,10.50
2018-12-22T17:35:27.983Z,10.40
2018-12-22T17:40:09.279Z,10.30
2018-12-22T17:44:40.318Z,10.30
2018-12-22T17:49:15.323Z,10.60
2018-12-22T17:53:50.209Z,10.60
2018-12-22T17:58:25.211Z,10.60
2018-12-22T18:03:00.077Z,10.50
2018-12-22T18:07:35.116Z,10.50
2018-12-22T18:12:10.159Z,10.50
2018-12-22T18:16:45.219Z,10.40
2018-12-22T18:21:20.908Z,10.40
2018-12-22T18:25:56.362Z,10.30
2018-12-22T18:30:31.471Z,10.30
2018-12-22T18:35:07.836Z,10.10
2018-12-22T18:39:42.864Z,10.10
2018-12-22T18:44:17.756Z,10.00
2018-12-22T18:48:52.627Z,9.80
2018-12-22T18:53:27.600Z,9.90
2018-12-22T18:58:04.348Z,9.80
2018-12-22T19:02:39.240Z,9.80
2018-12-22T19:07:14.117Z,9.70
2018-12-22T19:11:49.043Z,9.80
2018-12-22T19:16:23.952Z,9.80
2018-12-22T19:20:58.873Z,9.80
2018-12-22T19:25:33.940Z,9.80
2018-12-22T19:30:09.254Z,9.80
2018-12-22T19:34:44.160Z,9.70
2018-12-22T19:39:19.080Z,9.80
2018-12-22T19:43:54.014Z,9.80
2018-12-22T19:48:28.887Z,9.80
2018-12-22T19:53:03.800Z,9.80
2018-12-22T19:57:38.695Z,9.70
2018-12-22T20:02:13.750Z,9.60
2018-12-22T20:07:00.285Z,9.60
2018-12-22T20:11:35.136Z,9.50
2018-12-22T20:16:10.043Z,9.50
2018-12-22T20:20:45.001Z,9.40
2018-12-22T20:25:20.003Z,9.50
2018-12-22T20:29:55.065Z,9.60
2018-12-22T20:34:29.971Z,9.70
2018-12-22T20:39:07.081Z,9.80
2018-12-22T20:43:42.019Z,9.60
2018-12-22T20:48:16.972Z,9.30
2018-12-22T20:52:51.958Z,9.10
2018-12-22T20:57:26.947Z,9.10
2018-12-22T21:02:01.856Z,9.10
2018-12-22T21:06:36.719Z,9.00
2018-12-22T21:11:12.417Z,9.10
2018-12-22T21:15:47.295Z,9.00
2018-12-22T21:20:22.611Z,9.10
2018-12-22T21:24:57.476Z,9.00
2018-12-22T21:29:32.465Z,9.10
2018-12-22T21:34:07.341Z,9.00
2018-12-22T21:38:42.242Z,9.10
2018-12-22T21:43:17.107Z,9.10
2018-12-22T21:47:52.020Z,9.20
2018-12-22T21:52:26.893Z,9.10
2018-12-22T21:57:02.532Z,9.10
2018-12-22T22:01:37.402Z,9.10
2018-12-22T22:06:12.293Z,9.10
2018-12-22T22:10:47.200Z,9.10
2018-12-22T22:15:22.072Z,9.10
2018-12-22T22:19:56.944Z,9.00
2018-12-22T22:24:31.817Z,8.90
2018-12-22T22:29:08.644Z,8.80
2018-12-22T22:33:43.561Z,8.80
2018-12-22T22:38:18.428Z,8.80
2018-12-22T22:42:53.359Z,8.80
2018-12-22T22:47:28.250Z,8.90
2018-12-22T22:52:03.186Z,8.90
2018-12-22T22:56:38.067Z,8.90
2018-12-22T23:01:13.211Z,8.80
2018-12-22T23:05:49.009Z,8.90
2018-12-22T23:10:23.899Z,8.80
2018-12-22T23:14:59.248Z,8.70
2018-12-22T23:19:35.123Z,8.70
2018-12-22T23:24:10.812Z,8.70
2018-12-22T23:28:45.712Z,8.80
2018-12-22T23:33:20.579Z,8.70
2018-12-22T23:37:55.482Z,8.80
2018-12-22T23:42:30.347Z,8.60
2018-12-22T23:47:05.352Z,8.60
2018-12-22T23:51:40.238Z,8.60
2018-12-22T23:56:15.165Z,8.60
